Sand Lake, Florida
Current Conditions -  °F | °C
As of 1:53 PM on Friday 31 Oct 2014 (Local Time) from KMCO Reporting Station
Few Clouds Few Clouds  
Wind Chill: 79°   Ceiling: Unl
Heat Index: 79°   Visibility: 10mi
Dew Point: 51°   Wind: 14mph
Humidity: 38%   Direction: 270°W
Pressure: 29.82"   Gusts: NA
Location:  28.4565°N, 81.4676°W
Report Text: KMCO 311753Z 27012KT 10SM FEW040 26/11 A2982 RMK AO2 SLP095 T02610106 10261 20200 58022
Loading
Personal Weather Stations






























Interactive Weather Map New forecast layout! Learn more

10-Day Weather Forecast

Advertisements
Track Severe Weather on mobile